Time;durP1;ratioP1;P1;durP2;ratioP2;P2;SDS_P1;SDS_P2;PMS_P1;PMS_P2;Temp;Humidity;BMP_temperature;BMP_pressure;BME280_temperature;BME280_humidity;BME280_pressure;Samples;Min_cycle;Max_cycle;Signal;HPM_P1;HPM_P2
2021/12/10 00:01:55;;;;;;;48.17;19.83;;;1.70;99.90;;;;;;5113291;28;20241;-66
2021/12/10 00:04:29;;;;;;;46.33;20.53;;;1.60;99.90;;;;;;5114011;28;20237;-67
2021/12/10 00:07:00;;;;;;;44.07;20.27;;;1.60;99.90;;;;;;5113582;28;20158;-66
2021/12/10 00:09:40;;;;;;;47.93;19.63;;;1.70;99.90;;;;;;5113496;28;20629;-66
2021/12/10 00:12:19;;;;;;;40.90;20.33;;;1.60;99.90;;;;;;5113834;28;20154;-67
2021/12/10 00:14:45;;;;;;;42.93;19.87;;;1.60;99.90;;;;;;5113981;28;20227;-66
2021/12/10 00:17:14;;;;;;;45.87;19.40;;;1.70;99.90;;;;;;5113380;28;20186;-65
2021/12/10 00:19:48;;;;;;;46.60;21.07;;;1.70;99.90;;;;;;5113612;28;20160;-67
2021/12/10 00:22:26;;;;;;;41.23;19.73;;;1.70;99.90;;;;;;5113421;28;20164;-67
2021/12/10 00:24:53;;;;;;;43.27;19.20;;;1.70;99.90;;;;;;5095776;28;20529;-66
2021/12/10 00:27:27;;;;;;;43.27;20.73;;;1.80;99.90;;;;;;5113516;28;20614;-66
2021/12/10 00:29:54;;;;;;;40.07;19.73;;;1.70;99.90;;;;;;5114114;28;20327;-66
2021/12/10 00:32:31;;;;;;;47.77;20.10;;;1.70;99.90;;;;;;5114318;28;20182;-66
2021/12/10 00:34:59;;;;;;;43.37;20.03;;;1.70;99.90;;;;;;5113339;28;20214;-66
2021/12/10 00:37:25;;;;;;;48.60;21.17;;;1.80;99.90;;;;;;5113761;28;20193;-68
2021/12/10 00:39:56;;;;;;;47.07;20.73;;;1.80;99.90;;;;;;5113212;28;20249;-66
2021/12/10 00:42:28;;;;;;;42.67;20.53;;;1.70;99.90;;;;;;5116714;28;20159;-66
2021/12/10 00:44:55;;;;;;;45.40;20.53;;;1.70;99.90;;;;;;5117200;28;20155;-66
2021/12/10 00:47:21;;;;;;;50.37;21.23;;;1.90;99.90;;;;;;5116892;28;20610;-66
2021/12/10 00:49:47;;;;;;;41.10;19.40;;;1.70;99.90;;;;;;5117353;28;20255;-66
2021/12/10 00:52:15;;;;;;;44.20;19.87;;;1.70;99.90;;;;;;5117043;28;20574;-67
2021/12/10 00:54:42;;;;;;;43.93;20.53;;;1.70;99.90;;;;;;5098105;28;20319;-66
2021/12/10 00:57:09;;;;;;;42.20;19.63;;;1.60;99.90;;;;;;5117113;28;20158;-66
2021/12/10 00:59:36;;;;;;;46.17;19.47;;;1.60;99.90;;;;;;5117056;28;20629;-66
2021/12/10 01:02:04;;;;;;;39.67;19.13;;;1.60;99.90;;;;;;5116532;28;20214;-66
2021/12/10 01:04:33;;;;;;;42.00;19.63;;;1.70;99.90;;;;;;5116870;28;20174;-65
2021/12/10 01:07:03;;;;;;;43.00;18.93;;;1.70;99.90;;;;;;5116772;28;20527;-66
2021/12/10 01:09:33;;;;;;;41.90;18.70;;;1.70;99.90;;;;;;5116564;28;20192;-66
2021/12/10 01:12:16;;;;;;;36.80;18.43;;;1.60;99.90;;;;;;5115635;28;20213;-66
2021/12/10 01:25:51;;;;;;;36.93;17.27;;;1.70;99.90;;;;;;5116026;28;20218;-66
2021/12/10 01:28:17;;;;;;;40.90;18.27;;;1.70;99.90;;;;;;5116433;28;20608;-65
2021/12/10 01:30:43;;;;;;;33.97;16.17;;;1.70;99.90;;;;;;5116539;28;20232;-67
2021/12/10 01:33:13;;;;;;;33.90;16.53;;;1.80;99.90;;;;;;5115850;28;20163;-66
2021/12/10 01:35:49;;;;;;;35.13;18.27;;;1.70;99.90;;;;;;5119448;28;20222;-66
2021/12/10 01:38:16;;;;;;;34.53;17.57;;;1.70;99.90;;;;;;5125757;28;20161;-66
2021/12/10 01:40:46;;;;;;;32.87;15.90;;;1.80;99.90;;;;;;5117749;28;20188;-67
2021/12/10 01:43:22;;;;;;;28.70;15.30;;;1.70;99.90;;;;;;5116382;28;20154;-66
2021/12/10 01:45:49;;;;;;;27.20;14.80;;;1.70;99.90;;;;;;5115898;28;20245;-67
2021/12/10 01:48:38;;;;;;;29.53;15.43;;;1.80;99.90;;;;;;5115834;28;20171;-66
2021/12/10 01:51:06;;;;;;;30.07;14.73;;;1.80;99.90;;;;;;5115981;28;20644;-66
2021/12/10 01:53:35;;;;;;;31.97;16.10;;;1.80;99.90;;;;;;5115284;28;20170;-66
2021/12/10 01:56:07;;;;;;;28.87;15.00;;;1.80;99.90;;;;;;5116196;28;20195;-67
2021/12/10 01:58:33;;;;;;;25.40;13.73;;;1.70;99.90;;;;;;5115753;28;20162;-67
2021/12/10 02:01:07;;;;;;;28.63;14.60;;;1.80;99.90;;;;;;5097389;28;20303;-67
2021/12/10 02:03:34;;;;;;;33.10;15.23;;;1.70;99.90;;;;;;5115923;28;20154;-67
2021/12/10 02:06:00;;;;;;;27.70;13.70;;;1.80;99.90;;;;;;5116036;28;20162;-66
2021/12/10 02:08:26;;;;;;;27.67;15.50;;;1.80;99.90;;;;;;5115831;28;20162;-66
2021/12/10 02:10:52;;;;;;;32.33;15.33;;;1.80;99.90;;;;;;5116349;28;20498;-66
2021/12/10 02:13:18;;;;;;;26.77;13.70;;;1.70;99.90;;;;;;5116400;28;20237;-66
2021/12/10 02:15:44;;;;;;;26.80;14.90;;;1.80;99.90;;;;;;5116082;28;20563;-66
2021/12/10 02:18:12;;;;;;;29.10;13.73;;;1.80;99.90;;;;;;5115474;28;20168;-67
2021/12/10 02:21:02;;;;;;;24.73;13.03;;;1.80;99.90;;;;;;5116184;28;20205;-68
2021/12/10 02:23:33;;;;;;;26.03;14.30;;;1.90;99.90;;;;;;5115779;28;20173;-67
2021/12/10 02:26:01;;;;;;;25.07;14.60;;;1.80;99.90;;;;;;5115769;28;20162;-68
2021/12/10 02:28:28;;;;;;;28.33;14.13;;;1.90;99.90;;;;;;5115060;28;20166;-65
2021/12/10 02:30:54;;;;;;;25.73;13.27;;;1.80;99.90;;;;;;5115051;28;20284;-66
2021/12/10 02:33:21;;;;;;;29.07;14.03;;;1.80;99.90;;;;;;5114579;28;20169;-66
2021/12/10 02:35:47;;;;;;;25.90;13.70;;;1.90;99.90;;;;;;5114489;28;20640;-66
2021/12/10 02:38:16;;;;;;;24.73;13.73;;;1.80;99.90;;;;;;5114759;28;20188;-68
2021/12/10 02:40:43;;;;;;;26.97;14.73;;;1.80;99.90;;;;;;5114756;28;20154;-67
2021/12/10 02:43:12;;;;;;;27.13;13.83;;;2.00;99.90;;;;;;5096494;28;20268;-68
2021/12/10 02:45:40;;;;;;;27.03;13.97;;;1.90;99.90;;;;;;5114197;28;20173;-67
2021/12/10 02:48:06;;;;;;;28.27;14.53;;;1.90;99.90;;;;;;5114436;28;20249;-67
2021/12/10 02:50:33;;;;;;;26.23;13.90;;;1.80;99.90;;;;;;5114451;28;20194;-67
2021/12/10 02:52:59;;;;;;;26.93;14.67;;;1.90;99.90;;;;;;5115245;28;20169;-66
2021/12/10 02:55:27;;;;;;;25.00;13.27;;;1.90;99.90;;;;;;5115765;28;20547;-68
2021/12/10 02:57:55;;;;;;;27.03;13.20;;;1.90;99.90;;;;;;5115862;28;20162;-68
2021/12/10 03:00:27;;;;;;;25.33;12.53;;;1.90;99.90;;;;;;5114408;28;20526;-68
2021/12/10 03:02:53;;;;;;;24.60;13.37;;;1.80;99.90;;;;;;5114704;28;20256;-68
2021/12/10 03:05:20;;;;;;;26.40;14.20;;;1.80;99.90;;;;;;5114528;28;20215;-68
2021/12/10 03:07:46;;;;;;;26.70;14.10;;;1.90;99.90;;;;;;5097138;28;20174;-68
2021/12/10 03:10:18;;;;;;;25.97;14.37;;;1.90;99.90;;;;;;5115766;28;20200;-69
2021/12/10 03:12:44;;;;;;;25.57;13.37;;;1.90;99.90;;;;;;5115340;28;20166;-68
2021/12/10 03:15:11;;;;;;;23.50;13.30;;;1.90;99.90;;;;;;5114562;28;20154;-68
2021/12/10 03:17:37;;;;;;;25.17;13.53;;;1.90;99.90;;;;;;5115154;28;20163;-66
2021/12/10 03:20:09;;;;;;;26.90;13.03;;;1.80;99.90;;;;;;5114531;28;20223;-66
2021/12/10 03:22:37;;;;;;;25.33;13.53;;;1.80;99.90;;;;;;5114014;28;20597;-66
2021/12/10 03:25:08;;;;;;;25.77;13.63;;;1.90;99.90;;;;;;5113767;28;20150;-67
2021/12/10 03:27:34;;;;;;;24.97;13.37;;;1.90;99.90;;;;;;5114149;28;20162;-67
2021/12/10 03:30:01;;;;;;;30.53;14.17;;;2.00;99.90;;;;;;5113851;28;20529;-68
2021/12/10 03:32:30;;;;;;;27.23;13.20;;;1.80;99.90;;;;;;5113868;28;20178;-68
2021/12/10 03:35:03;;;;;;;29.37;15.20;;;1.90;99.90;;;;;;5113365;28;20217;-67
2021/12/10 03:37:29;;;;;;;23.53;13.40;;;1.80;99.90;;;;;;5113801;28;20211;-67
2021/12/10 03:39:54;;;;;;;26.43;13.70;;;1.80;99.90;;;;;;5114035;28;20163;-68
2021/12/10 03:42:20;;;;;;;28.03;14.20;;;1.90;99.90;;;;;;5113631;28;20181;-67
2021/12/10 03:44:46;;;;;;;24.37;13.17;;;1.90;99.90;;;;;;5113465;28;20173;-67
2021/12/10 03:47:12;;;;;;;25.93;13.63;;;1.80;99.90;;;;;;5113382;28;20627;-67
2021/12/10 03:49:38;;;;;;;26.10;13.13;;;1.70;99.90;;;;;;5113246;28;20220;-67
2021/12/10 03:52:06;;;;;;;24.37;12.03;;;1.80;99.90;;;;;;5113719;28;20266;-66
2021/12/10 03:54:33;;;;;;;25.97;12.93;;;1.70;99.90;;;;;;5114023;28;20158;-67
2021/12/10 03:56:58;;;;;;;25.57;13.13;;;1.80;99.90;;;;;;5117370;28;20216;-68
2021/12/10 03:59:25;;;;;;;31.73;14.27;;;1.80;99.90;;;;;;5113655;28;20178;-68
2021/12/10 04:01:55;;;;;;;23.73;13.00;;;1.80;99.90;;;;;;5114160;28;20189;-67
2021/12/10 04:04:33;;;;;;;26.37;13.93;;;1.80;99.90;;;;;;5113460;28;20166;-68
2021/12/10 04:07:06;;;;;;;24.47;13.77;;;1.80;99.90;;;;;;5113374;28;20586;-68
2021/12/10 04:09:32;;;;;;;25.23;13.37;;;1.90;99.90;;;;;;5113594;28;20193;-67
2021/12/10 04:11:57;;;;;;;24.10;12.77;;;2.00;99.90;;;;;;5113578;28;20170;-68
2021/12/10 04:14:23;;;;;;;22.97;11.70;;;2.00;99.90;;;;;;5113564;28;20472;-67
2021/12/10 04:16:55;;;;;;;22.17;11.63;;;1.90;99.90;;;;;;5115647;28;20203;-68
2021/12/10 04:19:24;;;;;;;21.70;11.97;;;1.80;99.90;;;;;;5117322;28;20162;-68
2021/12/10 04:21:52;;;;;;;20.20;11.07;;;1.90;99.90;;;;;;5117350;28;20167;-68
2021/12/10 04:24:20;;;;;;;19.97;11.47;;;1.90;99.90;;;;;;5117414;28;20163;-67
2021/12/10 04:26:47;;;;;;;21.07;11.60;;;1.90;99.90;;;;;;5117483;28;20163;-67
2021/12/10 04:29:13;;;;;;;20.40;11.93;;;1.90;99.90;;;;;;5117180;28;20198;-68
2021/12/10 04:31:40;;;;;;;16.97;10.87;;;1.90;99.90;;;;;;5118346;28;20186;-67
2021/12/10 04:34:06;;;;;;;15.57;10.67;;;1.90;99.90;;;;;;5126508;28;20303;-68
2021/12/10 04:36:33;;;;;;;21.83;10.77;;;2.00;99.90;;;;;;5122347;28;20287;-67
2021/12/10 04:38:59;;;;;;;21.83;10.90;;;1.90;99.90;;;;;;5117675;28;20166;-68
2021/12/10 04:41:25;;;;;;;18.50;9.90;;;1.80;99.90;;;;;;5117130;28;20173;-68
2021/12/10 04:43:52;;;;;;;20.43;9.90;;;1.90;99.90;;;;;;5117200;28;20158;-67
2021/12/10 04:46:18;;;;;;;15.47;9.73;;;1.80;99.90;;;;;;5116751;28;20159;-68
2021/12/10 04:49:01;;;;;;;16.70;10.03;;;1.90;99.90;;;;;;5117325;28;20528;-69
2021/12/10 04:51:32;;;;;;;20.40;10.87;;;1.90;99.90;;;;;;5117276;28;20186;-68
2021/12/10 04:53:59;;;;;;;16.77;9.97;;;1.90;99.90;;;;;;5117203;28;20166;-69
2021/12/10 04:56:26;;;;;;;18.67;10.77;;;1.90;99.90;;;;;;5116989;28;20181;-69
2021/12/10 04:58:52;;;;;;;16.57;9.97;;;1.90;99.90;;;;;;5116745;28;20166;-68
2021/12/10 05:01:19;;;;;;;17.83;10.13;;;2.00;99.90;;;;;;5116952;28;20264;-68
2021/12/10 05:03:45;;;;;;;17.30;10.10;;;2.00;99.90;;;;;;5117511;28;20613;-67
2021/12/10 05:06:11;;;;;;;20.60;10.50;;;1.90;99.90;;;;;;5116859;28;20167;-69
2021/12/10 05:08:38;;;;;;;19.70;10.53;;;2.00;99.90;;;;;;5116668;28;20159;-67
2021/12/10 05:11:07;;;;;;;20.80;10.20;;;2.00;99.90;;;;;;5116587;28;20166;-68
2021/12/10 05:13:34;;;;;;;21.90;10.87;;;1.90;99.90;;;;;;5116288;28;20158;-69
2021/12/10 05:16:00;;;;;;;18.23;9.67;;;2.00;99.90;;;;;;5116535;28;20595;-68
2021/12/10 05:18:31;;;;;;;21.63;10.10;;;2.00;99.90;;;;;;5116562;28;20190;-70
2021/12/10 05:20:58;;;;;;;18.87;10.47;;;1.90;99.90;;;;;;5116449;28;20231;-67
2021/12/10 05:23:23;;;;;;;15.70;9.20;;;2.00;99.90;;;;;;5116404;28;20158;-69
2021/12/10 05:25:50;;;;;;;16.97;10.57;;;2.00;99.90;;;;;;5116661;28;20266;-69
2021/12/10 05:28:16;;;;;;;19.10;9.57;;;2.00;99.90;;;;;;5114840;28;20220;-69
2021/12/10 05:30:43;;;;;;;18.40;9.60;;;2.00;99.90;;;;;;5116286;28;20599;-68
2021/12/10 05:33:14;;;;;;;16.67;10.10;;;2.00;99.90;;;;;;5116121;28;20163;-70
2021/12/10 05:35:40;;;;;;;17.20;10.37;;;2.00;99.90;;;;;;5116514;28;20701;-69
2021/12/10 05:38:06;;;;;;;21.00;10.00;;;2.00;99.90;;;;;;5116453;28;20336;-68
2021/12/10 05:40:32;;;;;;;17.50;10.67;;;2.00;99.90;;;;;;5116050;28;20480;-69
2021/12/10 05:42:57;;;;;;;18.23;9.67;;;2.00;99.90;;;;;;5115657;28;20165;-68
2021/12/10 05:45:24;;;;;;;17.13;9.90;;;2.00;99.90;;;;;;5115641;28;20508;-68
2021/12/10 05:47:50;;;;;;;16.30;10.63;;;2.00;99.90;;;;;;5116016;28;20498;-70
2021/12/10 05:50:20;;;;;;;21.00;11.63;;;2.00;99.90;;;;;;5115990;28;20625;-69
2021/12/10 05:52:46;;;;;;;20.20;10.07;;;2.00;99.90;;;;;;5116031;28;20590;-68
2021/12/10 05:55:12;;;;;;;19.53;10.47;;;1.90;99.90;;;;;;5116029;28;20173;-69
2021/12/10 05:57:38;;;;;;;16.90;9.57;;;2.00;99.90;;;;;;5115915;28;20166;-69
2021/12/10 06:00:09;;;;;;;21.43;11.03;;;2.00;99.90;;;;;;5115602;28;20219;-68
2021/12/10 06:02:35;;;;;;;19.97;10.50;;;2.00;99.90;;;;;;5115787;28;20174;-70
2021/12/10 06:05:01;;;;;;;22.67;10.93;;;2.00;99.90;;;;;;5115241;28;20498;-68
2021/12/10 06:07:26;;;;;;;19.53;11.00;;;2.00;99.90;;;;;;5115274;28;20170;-68
2021/12/10 06:09:52;;;;;;;20.37;10.37;;;2.00;99.90;;;;;;5114949;28;20187;-69
2021/12/10 06:12:18;;;;;;;18.63;11.00;;;2.10;99.90;;;;;;5115299;28;20162;-69
2021/12/10 06:14:43;;;;;;;17.30;9.70;;;2.10;99.90;;;;;;5115232;28;20163;-69
2021/12/10 06:17:10;;;;;;;17.67;10.37;;;2.10;99.90;;;;;;5115243;28;20156;-69
2021/12/10 06:19:35;;;;;;;17.67;9.43;;;2.20;99.90;;;;;;5115121;28;20166;-69
2021/12/10 06:22:01;;;;;;;18.90;9.93;;;2.20;99.90;;;;;;5115072;28;20154;-69
2021/12/10 06:24:27;;;;;;;13.37;8.90;;;2.10;99.90;;;;;;5114795;28;20189;-70
2021/12/10 06:26:53;;;;;;;19.83;10.20;;;2.10;99.90;;;;;;5114898;28;20169;-71
2021/12/10 06:29:23;;;;;;;15.97;9.17;;;2.10;99.90;;;;;;5114766;28;20317;-70
2021/12/10 06:31:49;;;;;;;18.93;9.37;;;2.10;99.90;;;;;;5114718;28;20601;-70
2021/12/10 06:34:15;;;;;;;14.37;8.37;;;2.10;99.90;;;;;;5114101;28;20260;-71
2021/12/10 06:36:40;;;;;;;17.13;8.30;;;2.10;99.90;;;;;;5114731;28;20158;-70
2021/12/10 06:39:07;;;;;;;14.60;8.63;;;2.10;99.90;;;;;;5114651;28;20523;-70
2021/12/10 06:41:33;;;;;;;18.20;10.37;;;2.10;99.90;;;;;;5114200;28;20162;-70
2021/12/10 06:44:01;;;;;;;47.53;21.77;;;2.10;99.90;;;;;;5114438;28;20166;-70
2021/12/10 06:46:27;;;;;;;19.33;9.87;;;2.20;99.90;;;;;;5114691;28;20212;-71
2021/12/10 06:48:53;;;;;;;20.97;12.77;;;2.10;99.90;;;;;;5113847;28;20189;-70
2021/12/10 06:51:20;;;;;;;16.60;10.63;;;2.20;99.90;;;;;;5114462;28;20253;-70
2021/12/10 06:53:47;;;;;;;19.50;12.47;;;2.10;99.90;;;;;;5113875;28;20476;-69
2021/12/10 06:56:14;;;;;;;19.53;11.63;;;2.10;99.90;;;;;;5114922;28;20174;-70
2021/12/10 06:58:42;;;;;;;17.03;9.70;;;2.20;99.90;;;;;;5114717;28;20159;-70
2021/12/10 07:01:19;;;;;;;21.97;13.67;;;2.20;99.90;;;;;;5114443;28;20548;-68
2021/12/10 07:03:45;;;;;;;20.17;11.73;;;2.10;99.90;;;;;;5114445;28;20169;-69
2021/12/10 07:06:12;;;;;;;18.57;10.40;;;2.10;99.90;;;;;;5114453;28;20545;-68
2021/12/10 07:08:41;;;;;;;17.73;9.73;;;2.10;99.90;;;;;;5114132;28;20257;-69
2021/12/10 07:11:10;;;;;;;16.60;10.07;;;2.10;99.90;;;;;;5114918;28;20262;-70
2021/12/10 07:13:38;;;;;;;17.20;10.37;;;2.20;99.90;;;;;;5115354;28;20162;-69
2021/12/10 07:16:05;;;;;;;20.43;11.30;;;2.20;99.90;;;;;;5096466;28;20610;-68
2021/12/10 07:18:32;;;;;;;18.53;10.50;;;2.20;99.90;;;;;;5114491;28;20186;-68
2021/12/10 07:20:57;;;;;;;19.77;10.07;;;2.30;99.90;;;;;;5113835;28;20551;-70
2021/12/10 07:23:23;;;;;;;16.10;10.07;;;2.30;99.90;;;;;;5114174;28;20162;-68
2021/12/10 07:25:50;;;;;;;18.20;10.43;;;2.30;99.90;;;;;;5114431;28;20202;-69
2021/12/10 07:28:17;;;;;;;15.07;9.13;;;2.20;99.90;;;;;;5114388;28;20162;-70
2021/12/10 07:30:43;;;;;;;17.80;9.67;;;2.20;99.90;;;;;;5117502;28;20197;-70
2021/12/10 07:33:09;;;;;;;20.53;8.77;;;2.20;99.90;;;;;;5115860;28;20166;-67
2021/12/10 07:35:36;;;;;;;19.00;9.73;;;2.20;99.90;;;;;;5113419;28;20622;-68
2021/12/10 07:38:03;;;;;;;15.53;9.07;;;2.30;99.90;;;;;;5113244;28;20173;-70
2021/12/10 07:40:31;;;;;;;14.60;6.83;;;2.30;99.90;;;;;;5113639;28;20253;-68
2021/12/10 07:42:57;;;;;;;13.83;8.80;;;2.30;99.90;;;;;;5113146;28;20158;-68
2021/12/10 07:45:24;;;;;;;17.60;9.50;;;2.20;99.90;;;;;;5113081;28;20503;-67
2021/12/10 07:47:53;;;;;;;15.87;9.77;;;2.20;99.90;;;;;;5112968;28;20168;-68
2021/12/10 07:50:23;;;;;;;16.13;9.73;;;2.30;99.90;;;;;;5112970;28;20718;-69
2021/12/10 07:52:54;;;;;;;15.80;8.83;;;2.30;99.90;;;;;;5112973;28;20508;-68
2021/12/10 07:55:20;;;;;;;18.73;10.23;;;2.40;99.90;;;;;;5113841;28;20196;-67
2021/12/10 07:57:46;;;;;;;17.90;10.23;;;2.30;99.90;;;;;;5112806;28;20227;-69
2021/12/10 08:00:15;;;;;;;16.10;7.90;;;2.40;99.90;;;;;;5113306;28;20170;-68
2021/12/10 08:02:41;;;;;;;16.77;9.37;;;2.30;99.90;;;;;;5113520;28;20162;-69
2021/12/10 08:05:08;;;;;;;21.23;12.83;;;2.30;99.90;;;;;;5113771;28;20250;-68
2021/12/10 08:07:34;;;;;;;20.80;10.40;;;2.30;99.90;;;;;;5113300;28;20552;-68
2021/12/10 08:10:00;;;;;;;17.60;9.57;;;2.30;99.90;;;;;;5112900;28;20289;-68
2021/12/10 08:12:26;;;;;;;17.50;9.30;;;2.30;99.90;;;;;;5113063;28;20166;-68
2021/12/10 08:14:53;;;;;;;20.07;9.70;;;2.40;99.90;;;;;;5113117;28;20163;-68
2021/12/10 08:17:24;;;;;;;15.97;9.17;;;2.40;99.90;;;;;;5113435;28;20253;-67
2021/12/10 08:19:50;;;;;;;21.67;10.27;;;2.30;99.90;;;;;;5113752;28;20257;-67
2021/12/10 08:22:16;;;;;;;18.37;9.80;;;2.30;99.90;;;;;;5113383;28;20166;-69
2021/12/10 08:24:43;;;;;;;19.47;9.47;;;2.30;99.90;;;;;;5113183;28;20167;-71
2021/12/10 08:27:09;;;;;;;20.40;10.53;;;2.20;99.90;;;;;;5094708;28;20174;-69
2021/12/10 08:29:35;;;;;;;23.40;11.33;;;2.30;99.90;;;;;;5112765;28;20190;-69
2021/12/10 08:32:02;;;;;;;20.63;10.47;;;2.30;99.90;;;;;;5113392;28;20183;-66
2021/12/10 08:34:28;;;;;;;14.87;7.60;;;2.40;99.90;;;;;;5110598;28;20162;-70
2021/12/10 08:36:54;;;;;;;18.20;11.43;;;2.50;99.90;;;;;;5092527;28;20185;-67
2021/12/10 08:39:20;;;;;;;18.07;10.13;;;2.40;99.90;;;;;;5092632;28;20727;-68
2021/12/10 08:41:46;;;;;;;19.20;11.53;;;2.40;99.90;;;;;;5093126;28;20254;-67
2021/12/10 08:44:13;;;;;;;17.33;10.90;;;2.40;99.90;;;;;;5092615;28;20272;-69
2021/12/10 08:46:40;;;;;;;18.10;11.03;;;2.30;99.90;;;;;;5092574;28;20163;-68
2021/12/10 08:49:06;;;;;;;18.20;10.50;;;2.40;99.90;;;;;;5092698;28;20211;-69
2021/12/10 08:51:40;;;;;;;19.13;11.30;;;2.40;99.90;;;;;;5092693;28;20568;-69
2021/12/10 08:54:06;;;;;;;19.80;11.40;;;2.50;99.90;;;;;;5092556;28;20171;-69
2021/12/10 08:56:35;;;;;;;20.70;11.33;;;2.50;99.90;;;;;;5092662;28;20611;-67
2021/12/10 08:59:02;;;;;;;15.43;9.50;;;2.60;99.90;;;;;;5092496;28;20167;-69
2021/12/10 09:01:32;;;;;;;24.77;13.37;;;2.40;99.90;;;;;;5093086;28;20227;-69
2021/12/10 09:03:59;;;;;;;22.93;13.63;;;2.60;99.90;;;;;;5096144;28;20212;-69
2021/12/10 09:06:28;;;;;;;20.03;11.23;;;2.60;99.90;;;;;;5078147;28;20185;-68
2021/12/10 09:08:55;;;;;;;17.77;10.23;;;2.60;99.90;;;;;;5095817;28;20206;-68
2021/12/10 09:11:21;;;;;;;15.73;9.97;;;2.60;99.90;;;;;;5096443;28;20559;-69
2021/12/10 09:13:47;;;;;;;19.23;9.87;;;2.80;99.90;;;;;;5096170;28;20248;-68
2021/12/10 09:16:22;;;;;;;23.43;11.33;;;2.80;99.90;;;;;;5095707;28;20218;-68
2021/12/10 09:18:49;;;;;;;19.73;11.90;;;2.80;99.90;;;;;;5095894;28;20162;-68
2021/12/10 09:21:15;;;;;;;17.20;10.43;;;2.80;99.90;;;;;;5095911;28;20478;-68
2021/12/10 09:23:41;;;;;;;16.57;9.73;;;2.80;99.90;;;;;;5095375;28;20489;-68
2021/12/10 09:26:14;;;;;;;18.67;10.20;;;2.90;99.90;;;;;;5096158;28;20171;-67
2021/12/10 09:28:42;;;;;;;16.50;9.63;;;2.90;99.90;;;;;;5095479;28;20159;-68
2021/12/10 09:31:09;;;;;;;21.13;10.57;;;2.80;99.90;;;;;;5095594;28;20266;-68
2021/12/10 09:33:35;;;;;;;16.17;9.27;;;2.80;99.90;;;;;;5077278;28;20189;-67
2021/12/10 09:36:01;;;;;;;20.80;11.33;;;2.90;99.90;;;;;;5095386;28;20258;-67
2021/12/10 09:38:28;;;;;;;28.90;14.10;;;2.90;99.90;;;;;;5095322;28;20186;-69
2021/12/10 09:40:58;;;;;;;25.97;13.73;;;3.00;99.90;;;;;;5095634;28;20225;-67
2021/12/10 09:43:24;;;;;;;23.50;11.77;;;3.10;99.90;;;;;;5095437;28;20496;-68
2021/12/10 09:45:52;;;;;;;20.70;10.43;;;3.20;99.90;;;;;;5095791;28;20213;-69
2021/12/10 09:48:19;;;;;;;19.97;10.57;;;3.10;99.90;;;;;;5095854;28;20246;-69
2021/12/10 09:50:59;;;;;;;20.50;11.50;;;3.20;99.90;;;;;;5095270;28;20210;-68
2021/12/10 09:53:27;;;;;;;25.83;11.33;;;3.30;99.90;;;;;;5095606;28;20170;-69
2021/12/10 09:55:55;;;;;;;22.60;10.83;;;3.40;99.90;;;;;;5095460;28;20159;-67
2021/12/10 09:58:21;;;;;;;27.83;12.30;;;3.20;99.90;;;;;;5095487;28;20165;-68
2021/12/10 10:00:58;;;;;;;20.20;9.43;;;3.20;99.90;;;;;;5095744;28;20231;-68
2021/12/10 10:03:28;;;;;;;15.30;8.53;;;3.20;99.90;;;;;;5096142;28;20575;-67
2021/12/10 10:05:55;;;;;;;22.43;11.37;;;3.30;99.90;;;;;;5102963;28;20626;-67
2021/12/10 10:08:27;;;;;;;29.83;12.33;;;3.50;99.90;;;;;;5095356;28;20156;-68
2021/12/10 10:10:57;;;;;;;19.93;10.67;;;3.40;99.90;;;;;;5076567;28;20211;-68
2021/12/10 10:13:27;;;;;;;20.87;11.23;;;3.40;99.90;;;;;;5094550;28;20190;-67
2021/12/10 10:15:57;;;;;;;21.07;11.30;;;3.40;99.90;;;;;;5094981;28;20174;-70
2021/12/10 10:18:23;;;;;;;24.63;12.17;;;3.50;99.90;;;;;;5095130;28;20167;-67
2021/12/10 10:20:54;;;;;;;21.20;11.00;;;3.60;99.90;;;;;;5094750;28;20159;-68
2021/12/10 10:23:21;;;;;;;21.40;10.73;;;3.60;99.90;;;;;;5094973;28;20592;-69
2021/12/10 10:25:51;;;;;;;15.33;8.33;;;3.50;99.90;;;;;;5097066;28;20151;-68
2021/12/10 10:28:19;;;;;;;14.23;7.77;;;3.60;99.90;;;;;;5103835;28;20163;-69
2021/12/10 10:30:58;;;;;;;15.20;9.20;;;3.60;99.90;;;;;;5097125;28;20567;-67
2021/12/10 10:33:25;;;;;;;20.00;9.10;;;3.60;99.90;;;;;;5096551;28;20168;-68
2021/12/10 10:35:57;;;;;;;20.50;10.50;;;3.70;99.90;;;;;;5110842;28;20229;-67
2021/12/10 10:38:25;;;;;;;16.83;9.13;;;3.70;99.90;;;;;;5116672;28;20167;-67
2021/12/10 10:40:54;;;;;;;17.40;9.33;;;3.80;99.90;;;;;;5114576;28;20158;-67
2021/12/10 10:43:22;;;;;;;19.33;9.40;;;3.80;99.90;;;;;;5114952;28;20171;-67
2021/12/10 10:45:48;;;;;;;16.57;9.10;;;3.80;99.90;;;;;;5114837;28;20158;-68
2021/12/10 10:48:16;;;;;;;11.57;6.93;;;3.80;99.90;;;;;;5114949;28;20167;-69
2021/12/10 10:51:07;;;;;;;16.77;8.37;;;3.90;99.90;;;;;;5115160;28;20203;-67
2021/12/10 10:53:45;;;;;;;17.23;8.87;;;3.90;99.90;;;;;;5114525;28;20164;-69
2021/12/10 10:56:15;;;;;;;23.57;11.07;;;4.00;99.90;;;;;;5114361;28;20253;-67
2021/12/10 10:58:55;;;;;;;22.60;10.37;;;4.00;99.90;;;;;;5114332;28;20154;-68
2021/12/10 11:01:28;;;;;;;26.40;12.37;;;4.00;99.90;;;;;;5096778;28;20181;-70
2021/12/10 11:04:05;;;;;;;20.80;10.43;;;4.00;99.90;;;;;;5114243;28;20153;-68
2021/12/10 11:06:36;;;;;;;19.83;9.47;;;4.00;99.90;;;;;;5114238;28;20156;-68
2021/12/10 11:09:14;;;;;;;23.87;9.20;;;4.00;99.90;;;;;;5114001;28;20699;-67
2021/12/10 11:11:48;;;;;;;25.53;11.50;;;4.00;99.90;;;;;;5114262;28;20171;-68
2021/12/10 11:14:16;;;;;;;20.53;8.90;;;4.00;99.90;;;;;;5114221;28;20167;-68
2021/12/10 11:16:45;;;;;;;18.33;8.80;;;4.00;99.90;;;;;;5113657;28;20557;-68
2021/12/10 11:19:17;;;;;;;19.93;8.93;;;4.00;99.90;;;;;;5113812;28;20168;-68
2021/12/10 11:21:52;;;;;;;17.30;8.97;;;4.10;99.90;;;;;;5114023;28;20182;-68
2021/12/10 11:24:34;;;;;;;20.57;11.20;;;4.00;99.90;;;;;;5114081;28;20173;-68
2021/12/10 11:27:03;;;;;;;36.07;15.33;;;4.10;99.90;;;;;;5113304;28;20158;-68
2021/12/10 11:30:02;;;;;;;13.50;6.43;;;4.10;99.90;;;;;;5114029;28;20214;-69
2021/12/10 11:32:39;;;;;;;24.27;10.93;;;4.30;99.90;;;;;;5114566;28;20182;-68
2021/12/10 11:35:16;;;;;;;18.17;8.93;;;4.50;99.90;;;;;;5114004;28;20226;-68
2021/12/10 11:37:48;;;;;;;19.23;10.23;;;4.40;99.90;;;;;;5113719;28;20151;-69
2021/12/10 11:40:42;;;;;;;13.47;7.07;;;4.50;99.90;;;;;;5095882;28;20174;-68
2021/12/10 11:48:50;;;;;;;15.50;7.93;;;4.40;99.90;;;;;;5114279;28;20262;-69
2021/12/10 11:51:20;;;;;;;13.47;7.17;;;4.40;99.90;;;;;;5113971;28;20170;-67
2021/12/10 11:53:59;;;;;;;12.53;6.93;;;4.40;99.90;;;;;;5113288;28;20191;-70
2021/12/10 11:56:34;;;;;;;11.57;7.47;;;4.40;99.90;;;;;;5114460;28;20203;-68
2021/12/10 11:59:13;;;;;;;12.37;7.07;;;4.40;99.90;;;;;;5113670;28;20186;-68
2021/12/10 12:01:47;;;;;;;19.97;9.97;;;4.30;99.90;;;;;;5113992;28;20158;-68
2021/12/10 12:04:33;;;;;;;14.77;7.57;;;4.30;99.90;;;;;;5096491;28;20537;-67
2021/12/10 12:07:35;;;;;;;14.30;7.73;;;4.40;99.90;;;;;;5095644;28;20592;-67
2021/12/10 12:10:07;;;;;;;18.70;8.27;;;4.40;99.90;;;;;;5113543;28;20631;-68
2021/12/10 12:12:44;;;;;;;21.30;9.73;;;4.40;99.90;;;;;;5113828;28;20165;-68
2021/12/10 12:15:16;;;;;;;21.83;10.57;;;4.30;99.90;;;;;;5114471;28;20186;-70
2021/12/10 12:17:49;;;;;;;16.77;7.50;;;4.30;99.90;;;;;;5113317;28;20212;-69
2021/12/10 12:20:25;;;;;;;16.43;7.97;;;4.40;99.90;;;;;;5114097;28;20170;-70
2021/12/10 12:24:57;;;;;;;13.83;6.73;;;4.30;99.90;;;;;;5114427;28;20542;-67
2021/12/10 12:26:29;;;;;;;16.33;6.57;;;4.20;99.90;;;;;;5113983;28;20474;-68
2021/12/10 12:29:09;;;;;;;19.50;9.57;;;4.30;99.90;;;;;;5096509;28;20628;-68
2021/12/10 12:31:38;;;;;;;18.70;9.50;;;4.40;99.90;;;;;;5114155;28;20188;-68
2021/12/10 12:34:25;;;;;;;16.50;8.63;;;4.20;99.90;;;;;;5115295;28;20180;-68
2021/12/10 12:36:51;;;;;;;19.47;8.20;;;4.50;99.90;;;;;;5094491;28;20262;-68
2021/12/10 12:39:36;;;;;;;9.93;6.40;;;4.50;99.90;;;;;;5098165;28;20255;-68
2021/12/10 12:42:22;;;;;;;13.53;7.07;;;4.40;99.90;;;;;;5097887;28;20179;-67
2021/12/10 12:45:18;;;;;;;17.67;8.67;;;4.40;99.90;;;;;;5097225;28;20161;-67
2021/12/10 12:47:47;;;;;;;10.07;6.00;;;4.30;99.90;;;;;;5093572;28;20193;-68
2021/12/10 12:50:15;;;;;;;18.70;8.13;;;4.30;99.90;;;;;;5097297;28;20187;-68
2021/12/10 12:52:49;;;;;;;16.33;8.33;;;4.30;99.90;;;;;;5101479;28;20168;-68
2021/12/10 12:55:46;;;;;;;15.17;7.20;;;4.40;99.90;;;;;;5100441;28;20178;-68
2021/12/10 12:58:18;;;;;;;21.77;9.67;;;4.30;99.90;;;;;;5098940;28;20224;-69
2021/12/10 13:01:19;;;;;;;18.77;7.70;;;4.40;99.90;;;;;;5098624;28;20169;-68
2021/12/10 13:03:48;;;;;;;19.97;9.93;;;4.30;99.90;;;;;;5014696;28;20636;-68
2021/12/10 13:06:24;;;;;;;15.30;8.63;;;4.30;99.90;;;;;;5014157;28;20183;-68
2021/12/10 13:09:16;;;;;;;13.60;7.13;;;4.30;99.90;;;;;;5013823;28;20677;-69
2021/12/10 13:12:02;;;;;;;12.90;6.40;;;4.40;99.90;;;;;;5007535;28;20194;-68